Time;durP1;ratioP1;P1;durP2;ratioP2;P2;SDS_P1;SDS_P2;PMS_P1;PMS_P2;Temp;Humidity;BMP_temperature;BMP_pressure;BME280_temperature;BME280_humidity;BME280_pressure;Samples;Min_cycle;Max_cycle;Signal;HPM_P1;HPM_P2
2021/07/11 00:02:24;;;;;;;;;;;;;;;20.34;58.21;100563.28;5058924;28;776;-45
2021/07/11 00:04:49;;;;;;;;;;;;;;;20.50;57.08;100572.91;5049711;28;896;-47
2021/07/11 00:07:15;;;;;;;;;;;;;;;20.43;55.92;100564.22;5038734;28;2227;-44
2021/07/11 00:09:41;;;;;;;;;;;;;;;20.45;54.35;100561.97;5039314;28;804;-45
2021/07/11 00:12:07;;;;;;;;;;;;;;;20.38;53.75;100563.50;5039434;28;756;-45
2021/07/11 00:14:32;;;;;;;;;;;;;;;20.32;53.28;100560.00;5038359;28;812;-46
2021/07/11 00:17:00;;;;;;;;;;;;;;;20.42;52.24;100559.81;5038952;28;760;-45
2021/07/11 00:19:26;;;;;;;;;;;;;;;20.52;52.17;100554.09;5047388;28;972;-44
2021/07/11 00:21:51;;;;;;;;;;;;;;;20.65;54.33;100554.41;5058347;28;776;-46
2021/07/11 00:24:17;;;;;;;;;;;;;;;20.93;55.46;100551.66;5059260;28;776;-46
2021/07/11 00:26:42;;;;;;;;;;;;;;;21.13;56.44;100545.69;5058705;28;843;-45
2021/07/11 00:29:07;;;;;;;;;;;;;;;21.28;56.84;100547.31;5040296;28;1934;-46
2021/07/11 00:31:33;;;;;;;;;;;;;;;21.43;57.28;100548.09;5058680;28;748;-45
2021/07/11 00:33:58;;;;;;;;;;;;;;;21.47;57.87;100551.88;5058233;28;1025;-47
2021/07/11 00:36:24;;;;;;;;;;;;;;;21.59;57.99;100543.88;5058240;28;788;-48
2021/07/11 00:38:49;;;;;;;;;;;;;;;21.61;58.25;100544.34;5041040;28;1166;-44
2021/07/11 00:41:19;;;;;;;;;;;;;;;21.01;60.78;100542.66;5058595;28;807;-45
2021/07/11 00:43:45;;;;;;;;;;;;;;;21.24;60.01;100539.94;5040075;28;1350;-46
2021/07/11 00:46:16;;;;;;;;;;;;;;;20.64;59.15;100538.97;5040754;28;1094;-44
2021/07/11 00:48:41;;;;;;;;;;;;;;;21.18;61.15;100537.31;5057776;28;1906;-45
2021/07/11 00:51:07;;;;;;;;;;;;;;;21.58;60.04;100528.38;5058045;28;898;-46
2021/07/11 00:53:33;;;;;;;;;;;;;;;21.62;59.76;100523.06;5057938;28;1210;-45
2021/07/11 00:55:58;;;;;;;;;;;;;;;21.78;59.32;100521.53;5040385;28;1099;-45
2021/07/11 00:58:24;;;;;;;;;;;;;;;21.61;60.09;100538.00;5057965;28;803;-44
2021/07/11 01:00:54;;;;;;;;;;;;;;;21.32;60.99;100528.13;5058564;28;873;-45
2021/07/11 01:03:21;;;;;;;;;;;;;;;20.98;61.27;100526.69;5057670;28;1030;-44
2021/07/11 01:05:50;;;;;;;;;;;;;;;20.68;60.25;100528.97;5022927;28;1182;-44
2021/07/11 01:08:24;;;;;;;;;;;;;;;21.32;61.74;100526.19;5020025;28;1985;-47
2021/07/11 01:11:16;;;;;;;;;;;;;;;21.78;60.18;100531.78;5004312;28;1171;-44
2021/07/11 01:13:41;;;;;;;;;;;;;;;21.84;59.76;100525.81;5034172;28;1172;-45
2021/07/11 01:16:10;;;;;;;;;;;;;;;21.82;59.71;100528.06;5004075;28;1374;-44
2021/07/11 01:18:41;;;;;;;;;;;;;;;21.34;61.34;100534.19;5006219;28;1340;-46
2021/07/11 01:21:11;;;;;;;;;;;;;;;20.95;59.99;100535.59;5039639;28;1854;-45
2021/07/11 01:23:42;;;;;;;;;;;;;;;20.94;60.42;100518.19;5039863;28;1228;-45
2021/07/11 01:26:08;;;;;;;;;;;;;;;21.35;61.39;100527.53;5058344;28;717;-47
2021/07/11 01:28:34;;;;;;;;;;;;;;;21.65;60.13;100523.22;5039485;28;1914;-43
2021/07/11 01:30:59;;;;;;;;;;;;;;;21.78;59.34;100527.06;5039777;28;803;-45
2021/07/11 01:33:26;;;;;;;;;;;;;;;21.77;58.00;100528.22;5039471;28;951;-44
2021/07/11 01:35:53;;;;;;;;;;;;;;;21.40;57.25;100532.94;5022971;28;1361;-44
2021/07/11 01:38:21;;;;;;;;;;;;;;;21.34;55.95;100517.59;5039839;28;799;-44
2021/07/11 01:40:48;;;;;;;;;;;;;;;21.06;54.55;100512.13;5039860;28;1118;-44
2021/07/11 01:43:15;;;;;;;;;;;;;;;21.09;53.43;100510.69;5057180;28;791;-44
2021/07/11 01:45:41;;;;;;;;;;;;;;;20.89;52.66;100515.53;5057604;28;717;-44
2021/07/11 01:48:06;;;;;;;;;;;;;;;20.67;52.47;100513.47;5039636;28;1910;-44
2021/07/11 01:50:32;;;;;;;;;;;;;;;20.62;52.33;100517.19;5022407;28;1234;-43
2021/07/11 01:52:58;;;;;;;;;;;;;;;20.58;52.06;100507.88;5057382;28;1017;-46
2021/07/11 01:55:26;;;;;;;;;;;;;;;20.63;51.70;100504.97;5040386;28;1036;-44
2021/07/11 01:57:52;;;;;;;;;;;;;;;20.51;51.97;100505.50;5056504;28;783;-45
2021/07/11 02:00:19;;;;;;;;;;;;;;;20.48;51.92;100505.28;5039161;28;2031;-45
2021/07/11 02:02:45;;;;;;;;;;;;;;;20.32;52.08;100508.34;5057343;28;609;-45
2021/07/11 02:05:18;;;;;;;;;;;;;;;20.37;51.96;100504.69;5044067;28;991;-47
2021/07/11 02:07:45;;;;;;;;;;;;;;;20.58;51.54;100495.97;5019608;28;1991;-46
2021/07/11 02:10:11;;;;;;;;;;;;;;;20.83;54.58;100509.31;5036458;28;798;-44
2021/07/11 02:12:40;;;;;;;;;;;;;;;21.24;56.53;100504.81;5019180;28;1207;-44
2021/07/11 02:15:07;;;;;;;;;;;;;;;21.48;57.60;100507.28;5019559;28;1348;-43
2021/07/11 02:17:33;;;;;;;;;;;;;;;21.46;59.31;100506.81;5003238;28;1281;-43
2021/07/11 02:20:14;;;;;;;;;;;;;;;21.40;60.87;100501.69;5020079;28;1387;-44
2021/07/11 02:22:43;;;;;;;;;;;;;;;21.24;60.90;100504.81;5039302;28;1230;-45
2021/07/11 02:25:09;;;;;;;;;;;;;;;20.93;59.77;100501.91;5056929;28;753;-45
2021/07/11 02:27:35;;;;;;;;;;;;;;;21.07;61.58;100502.72;5038632;28;1913;-48
2021/07/11 02:30:06;;;;;;;;;;;;;;;21.59;63.12;100509.81;5023069;28;1183;-44
2021/07/11 02:32:32;;;;;;;;;;;;;;;21.95;62.64;100506.16;5056638;28;804;-44
2021/07/11 02:34:57;;;;;;;;;;;;;;;22.14;62.07;100494.88;5038588;28;1003;-46
2021/07/11 02:37:24;;;;;;;;;;;;;;;21.77;63.26;100496.94;5022563;28;1162;-45
2021/07/11 02:39:50;;;;;;;;;;;;;;;21.70;63.71;100502.94;5022489;28;1328;-43
2021/07/11 02:42:16;;;;;;;;;;;;;;;21.49;59.80;100503.41;5056313;28;867;-43
2021/07/11 02:44:47;;;;;;;;;;;;;;;20.69;60.63;100502.97;5039207;28;824;-45
2021/07/11 02:47:16;;;;;;;;;;;;;;;21.05;59.91;100498.63;5039134;28;2001;-43
2021/07/11 02:49:47;;;;;;;;;;;;;;;20.73;58.14;100501.22;5056060;28;1038;-43
2021/07/11 02:52:12;;;;;;;;;;;;;;;20.83;55.91;100502.94;5056321;28;760;-45
2021/07/11 02:54:49;;;;;;;;;;;;;;;20.91;55.20;100510.50;5056338;28;1049;-44
2021/07/11 02:57:17;;;;;;;;;;;;;;;20.85;55.46;100509.81;5038672;28;1308;-44
2021/07/11 02:59:43;;;;;;;;;;;;;;;21.14;54.62;100503.09;5022234;28;1248;-43
2021/07/11 03:02:09;;;;;;;;;;;;;;;20.99;55.52;100511.75;5021864;28;1317;-43
2021/07/11 03:04:40;;;;;;;;;;;;;;;20.97;55.47;100503.75;5034845;28;1133;-44
2021/07/11 03:07:06;;;;;;;;;;;;;;;20.98;55.48;100508.16;5036263;28;1922;-43
2021/07/11 03:09:34;;;;;;;;;;;;;;;21.08;55.49;100504.34;5035648;28;1273;-42
2021/07/11 03:11:59;;;;;;;;;;;;;;;21.12;55.17;100510.88;5035120;28;1131;-43
2021/07/11 03:14:25;;;;;;;;;;;;;;;21.15;55.46;100515.81;5018505;28;1269;-53
2021/07/11 03:16:53;;;;;;;;;;;;;;;21.19;55.49;100510.47;5035517;28;756;-44
2021/07/11 03:19:20;;;;;;;;;;;;;;;21.30;54.99;100511.06;5021631;28;1325;-47
2021/07/11 03:21:47;;;;;;;;;;;;;;;21.16;55.56;100508.31;5060297;28;814;-43
2021/07/11 03:24:15;;;;;;;;;;;;;;;21.45;54.42;100515.41;5042795;28;1266;-43
2021/07/11 03:26:41;;;;;;;;;;;;;;;21.16;55.37;100506.38;5060231;28;860;-48
2021/07/11 03:29:17;;;;;;;;;;;;;;;21.33;55.11;100507.66;5042249;28;1902;-43
2021/07/11 03:31:42;;;;;;;;;;;;;;;21.14;55.73;100510.56;5042697;28;747;-43
2021/07/11 03:34:08;;;;;;;;;;;;;;;21.24;55.54;100515.03;5024929;28;1887;-43
2021/07/11 03:36:33;;;;;;;;;;;;;;;21.23;55.50;100518.97;5042593;28;737;-48
2021/07/11 03:39:13;;;;;;;;;;;;;;;21.27;55.26;100517.22;5027526;28;1361;-46
2021/07/11 03:41:40;;;;;;;;;;;;;;;21.28;55.21;100525.19;5041468;28;820;-47
2021/07/11 03:44:06;;;;;;;;;;;;;;;21.33;55.00;100527.00;5059892;28;811;-43
2021/07/11 03:46:33;;;;;;;;;;;;;;;21.41;54.66;100523.50;5042069;28;1209;-45
2021/07/11 03:49:00;;;;;;;;;;;;;;;21.36;55.32;100526.38;5058649;28;1910;-43
2021/07/11 03:51:26;;;;;;;;;;;;;;;20.90;56.67;100524.66;5059809;28;819;-49
2021/07/11 03:53:52;;;;;;;;;;;;;;;20.88;56.62;100524.16;5041723;28;1183;-49
2021/07/11 03:56:17;;;;;;;;;;;;;;;20.43;56.72;100522.78;5041428;28;816;-43
2021/07/11 03:58:43;;;;;;;;;;;;;;;20.30;58.24;100518.91;5041921;28;752;-45
2021/07/11 04:01:08;;;;;;;;;;;;;;;20.78;57.58;100520.47;5059433;28;783;-46
2021/07/11 04:03:34;;;;;;;;;;;;;;;;;;5059148;28;1026;-43
2021/07/11 04:06:01;;;;;;;;;;;;;;;21.52;57.63;100521.34;5041205;28;1183;-42
2021/07/11 04:08:26;;;;;;;;;;;;;;;21.35;58.94;100528.34;5022161;28;1914;-42
2021/07/11 04:10:52;;;;;;;;;;;;;;;21.32;59.65;100519.84;5038901;28;836;-47
2021/07/11 04:13:17;;;;;;;;;;;;;;;21.00;60.68;100514.19;5039461;28;826;-43
2021/07/11 04:15:47;;;;;;;;;;;;;;;20.68;59.22;100520.69;5039482;28;719;-42
2021/07/11 04:18:13;;;;;;;;;;;;;;;21.02;62.22;100520.22;5021290;28;844;-43
2021/07/11 04:20:40;;;;;;;;;;;;;;;21.42;61.47;100518.78;5057960;28;1004;-44
2021/07/11 04:23:05;;;;;;;;;;;;;;;21.81;60.29;100523.69;5059478;28;812;-44
2021/07/11 04:25:31;;;;;;;;;;;;;;;21.43;61.32;100520.41;5041069;28;812;-44
2021/07/11 04:27:57;;;;;;;;;;;;;;;21.41;61.78;100517.97;5059427;28;1906;-44
2021/07/11 04:30:22;;;;;;;;;;;;;;;21.40;60.25;100513.56;5058882;28;756;-43
2021/07/11 04:32:48;;;;;;;;;;;;;;;20.93;58.80;100518.50;5057900;28;763;-43
2021/07/11 04:35:13;;;;;;;;;;;;;;;21.19;62.09;100511.25;5040820;28;971;-46
2021/07/11 04:37:39;;;;;;;;;;;;;;;21.76;62.17;100517.47;5059232;28;803;-47
2021/07/11 04:40:04;;;;;;;;;;;;;;;21.84;61.61;100511.97;5058396;28;859;-42
2021/07/11 04:42:30;;;;;;;;;;;;;;;21.61;61.60;100511.16;5058941;28;798;-44
2021/07/11 04:44:56;;;;;;;;;;;;;;;21.55;62.45;100515.19;5056709;28;1080;-43
2021/07/11 04:47:22;;;;;;;;;;;;;;;21.31;61.38;100521.78;5058207;28;1902;-43
2021/07/11 04:49:47;;;;;;;;;;;;;;;21.11;60.03;100512.03;5058174;28;1021;-43
2021/07/11 04:52:13;;;;;;;;;;;;;;;21.28;61.96;100522.44;5043753;28;1093;-43
2021/07/11 04:54:38;;;;;;;;;;;;;;;21.45;63.70;100526.47;5038059;28;1377;-43
2021/07/11 04:57:04;;;;;;;;;;;;;;;21.94;62.27;100523.94;5048422;28;838;-45
2021/07/11 04:59:29;;;;;;;;;;;;;;;21.92;61.75;100529.75;5058308;28;740;-44
2021/07/11 05:01:55;;;;;;;;;;;;;;;21.36;62.63;100529.97;5065404;28;887;-46
2021/07/11 05:04:20;;;;;;;;;;;;;;;21.39;63.17;100534.06;5064886;28;954;-44
2021/07/11 05:06:45;;;;;;;;;;;;;;;;;;5038722;28;777;-42
2021/07/11 05:09:11;;;;;;;;;;;;;;;21.17;61.51;100524.59;5037964;28;1972;-43
2021/07/11 05:11:36;;;;;;;;;;;;;;;21.18;63.32;100526.25;5038209;28;867;-42
2021/07/11 05:14:02;;;;;;;;;;;;;;;21.27;64.17;100531.03;5038236;28;831;-45
2021/07/11 05:16:28;;;;;;;;;;;;;;;21.50;63.40;100532.72;5038141;28;763;-43
2021/07/11 05:18:53;;;;;;;;;;;;;;;21.47;65.05;100538.84;5042622;28;975;-46
2021/07/11 05:21:19;;;;;;;;;;;;;;;21.50;64.07;100535.47;5058104;28;787;-42
2021/07/11 05:23:44;;;;;;;;;;;;;;;21.37;64.55;100547.38;5057520;28;858;-42
2021/07/11 05:26:10;;;;;;;;;;;;;;;21.52;64.28;100552.59;5040437;28;1075;-43
2021/07/11 05:28:35;;;;;;;;;;;;;;;21.41;64.60;100553.94;5058173;28;1972;-43
2021/07/11 05:31:01;;;;;;;;;;;;;;;21.70;64.76;100553.56;5057681;28;787;-44
2021/07/11 05:33:26;;;;;;;;;;;;;;;21.77;64.61;100553.13;5039598;28;971;-42
2021/07/11 05:35:52;;;;;;;;;;;;;;;21.75;63.98;100549.03;5057915;28;772;-42
2021/07/11 05:38:17;;;;;;;;;;;;;;;21.80;64.21;100551.69;5057790;28;764;-43
2021/07/11 05:40:42;;;;;;;;;;;;;;;21.72;63.71;100553.22;5057780;28;828;-43
2021/07/11 05:43:08;;;;;;;;;;;;;;;21.72;62.33;100549.66;5056817;28;771;-42
2021/07/11 05:45:33;;;;;;;;;;;;;;;21.82;63.41;100555.75;5057454;28;823;-42
2021/07/11 05:47:59;;;;;;;;;;;;;;;21.76;63.79;100551.47;5057280;28;1918;-43
2021/07/11 05:50:24;;;;;;;;;;;;;;;21.73;64.13;100551.28;5057217;28;963;-42
2021/07/11 05:52:50;;;;;;;;;;;;;;;21.78;62.73;100542.84;5057202;28;1033;-42
2021/07/11 05:55:15;;;;;;;;;;;;;;;21.64;62.56;100551.22;5057026;28;1007;-45
2021/07/11 05:57:40;;;;;;;;;;;;;;;21.56;64.25;100547.25;5057771;28;802;-44
2021/07/11 06:00:07;;;;;;;;;;;;;;;21.51;64.24;100544.56;5057514;28;819;-44
2021/07/11 06:02:38;;;;;;;;;;;;;;;21.47;64.10;100549.09;5056634;28;621;-43
2021/07/11 06:05:10;;;;;;;;;;;;;;;21.23;64.26;100546.63;5151854;27;1214;-41
2021/07/11 06:07:35;;;;;;;;;;;;;;;21.03;64.00;100552.28;5155565;27;988;-41
2021/07/11 06:10:02;;;;;;;;;;;;;;;21.17;64.32;100552.25;5153772;27;747;-40
2021/07/11 06:12:27;;;;;;;;;;;;;;;21.32;64.50;100541.97;5155214;27;750;-40
2021/07/11 06:14:54;;;;;;;;;;;;;;;21.18;64.17;100548.38;5155144;27;762;-41
2021/07/11 06:17:20;;;;;;;;;;;;;;;21.20;64.45;100546.09;5154801;27;762;-41
2021/07/11 06:19:45;;;;;;;;;;;;;;;21.23;65.02;100549.38;5142517;27;1012;-40
2021/07/11 06:22:11;;;;;;;;;;;;;;;21.17;65.24;100549.47;5133039;28;779;-41
2021/07/11 06:24:36;;;;;;;;;;;;;;;21.05;65.69;100551.97;5133892;27;1958;-40
2021/07/11 06:27:02;;;;;;;;;;;;;;;21.11;65.42;100559.03;5134234;27;731;-42
2021/07/11 06:29:27;;;;;;;;;;;;;;;21.06;65.29;100550.84;5134461;27;1068;-40
2021/07/11 06:31:53;;;;;;;;;;;;;;;21.20;65.02;100550.81;5133791;28;752;-41
2021/07/11 06:34:18;;;;;;;;;;;;;;;21.30;65.37;100558.06;5141602;27;1183;-42
2021/07/11 06:36:44;;;;;;;;;;;;;;;21.06;66.12;100550.84;5154881;27;826;-44
2021/07/11 06:39:09;;;;;;;;;;;;;;;21.30;65.29;100549.75;5154575;27;734;-42
2021/07/11 06:41:35;;;;;;;;;;;;;;;21.28;65.13;100552.84;5154417;27;743;-43
2021/07/11 06:44:00;;;;;;;;;;;;;;;21.27;65.23;100550.41;5154657;27;1970;-40
2021/07/11 06:46:26;;;;;;;;;;;;;;;21.26;65.14;100548.75;5154367;27;816;-40
2021/07/11 06:48:51;;;;;;;;;;;;;;;21.17;65.19;100556.97;5149691;27;1019;-41
2021/07/11 06:51:17;;;;;;;;;;;;;;;21.26;64.91;100543.22;5133989;27;814;-41
2021/07/11 06:53:42;;;;;;;;;;;;;;;20.99;65.49;100551.25;5133213;27;805;-41
2021/07/11 06:56:08;;;;;;;;;;;;;;;21.08;65.14;100554.09;5134046;28;771;-41
2021/07/11 06:58:33;;;;;;;;;;;;;;;21.37;64.22;100550.16;5133638;27;746;-41
2021/07/11 07:00:59;;;;;;;;;;;;;;;21.17;64.59;100551.44;5133450;27;794;-41
2021/07/11 07:03:24;;;;;;;;;;;;;;;20.89;65.30;100556.16;5133040;27;1913;-40
2021/07/11 07:05:50;;;;;;;;;;;;;;;21.15;64.52;100561.97;5150849;27;1098;-40
2021/07/11 07:08:15;;;;;;;;;;;;;;;21.00;64.66;100552.91;5154052;27;743;-41
2021/07/11 07:10:41;;;;;;;;;;;;;;;21.24;64.04;100553.75;5154357;27;842;-41
2021/07/11 07:13:06;;;;;;;;;;;;;;;20.97;64.62;100561.81;5153697;27;779;-41
2021/07/11 07:15:32;;;;;;;;;;;;;;;20.98;64.61;100555.13;5145979;27;790;-40
2021/07/11 07:17:57;;;;;;;;;;;;;;;21.23;63.60;100550.19;5140359;27;835;-41
2021/07/11 07:20:22;;;;;;;;;;;;;;;21.20;63.81;100548.03;5121923;27;1019;-42
2021/07/11 07:22:48;;;;;;;;;;;;;;;20.93;64.51;100546.13;5119047;28;1914;-41
2021/07/11 07:25:14;;;;;;;;;;;;;;;21.11;64.14;100547.97;5119562;28;806;-45
2021/07/11 07:27:40;;;;;;;;;;;;;;;21.25;63.65;100542.41;5119522;28;795;-42
2021/07/11 07:30:05;;;;;;;;;;;;;;;20.98;64.60;100543.28;5119302;28;784;-40
2021/07/11 07:32:31;;;;;;;;;;;;;;;21.26;63.42;100551.50;5118950;28;771;-40
2021/07/11 07:34:56;;;;;;;;;;;;;;;21.28;63.38;100546.47;5132411;27;977;-41
2021/07/11 07:37:22;;;;;;;;;;;;;;;21.14;63.74;100541.81;5139730;27;793;-41
2021/07/11 07:39:47;;;;;;;;;;;;;;;21.09;63.87;100552.16;5139740;27;903;-41
2021/07/11 07:42:13;;;;;;;;;;;;;;;21.11;64.00;100547.97;5139838;27;767;-42
2021/07/11 07:44:38;;;;;;;;;;;;;;;20.92;64.54;100556.38;5139062;27;1909;-42
2021/07/11 07:47:04;;;;;;;;;;;;;;;21.14;63.85;100540.97;5139634;27;787;-41
2021/07/11 07:49:29;;;;;;;;;;;;;;;20.90;64.82;100547.59;5129338;27;1024;-41
2021/07/11 07:51:55;;;;;;;;;;;;;;;21.17;63.74;100546.72;5118731;28;755;-44
2021/07/11 07:54:20;;;;;;;;;;;;;;;20.96;64.58;100549.09;5119023;28;778;-41
2021/07/11 07:56:45;;;;;;;;;;;;;;;21.07;64.37;100555.25;5119002;28;847;-42
2021/07/11 07:59:11;;;;;;;;;;;;;;;21.33;63.29;100543.59;5118482;28;851;-42
2021/07/11 08:01:38;;;;;;;;;;;;;;;21.30;63.54;100549.75;5118993;28;798;-41
2021/07/11 08:04:04;;;;;;;;;;;;;;;21.40;63.37;100546.75;5120520;27;1914;-42
2021/07/11 08:06:30;;;;;;;;;;;;;;;21.32;63.64;100553.03;5139028;27;818;-42
2021/07/11 08:08:55;;;;;;;;;;;;;;;21.35;63.50;100553.22;5139270;27;763;-42
2021/07/11 08:11:21;;;;;;;;;;;;;;;21.36;63.69;100551.28;5139008;27;747;-42
2021/07/11 08:13:46;;;;;;;;;;;;;;;21.33;63.82;100549.13;5138652;27;767;-42
2021/07/11 08:16:12;;;;;;;;;;;;;;;21.18;64.24;100548.38;5139256;27;802;-43
2021/07/11 08:18:37;;;;;;;;;;;;;;;21.49;63.28;100553.19;5136140;27;957;-43
2021/07/11 08:21:03;;;;;;;;;;;;;;;21.18;64.31;100553.91;5118028;28;779;-43
2021/07/11 08:23:28;;;;;;;;;;;;;;;21.45;63.50;100557.72;5117938;28;1914;-42
2021/07/11 08:25:53;;;;;;;;;;;;;;;21.57;62.92;100548.06;5118417;28;882;-42
2021/07/11 08:28:19;;;;;;;;;;;;;;;21.53;62.92;100554.22;5117385;28;739;-44
2021/07/11 08:30:44;;;;;;;;;;;;;;;21.39;63.24;100553.41;5118310;28;751;-42
2021/07/11 08:33:10;;;;;;;;;;;;;;;21.25;63.65;100542.41;5118405;28;735;-43
2021/07/11 08:35:35;;;;;;;;;;;;;;;21.20;63.96;100548.84;5135566;27;942;-42
2021/07/11 08:38:00;;;;;;;;;;;;;;;21.29;63.58;100548.94;5138561;27;751;-42
2021/07/11 08:40:26;;;;;;;;;;;;;;;21.10;64.21;100549.09;5138757;27;866;-43
2021/07/11 08:42:52;;;;;;;;;;;;;;;21.33;63.65;100549.13;5138343;27;1910;-43
2021/07/11 08:45:17;;;;;;;;;;;;;;;21.42;63.31;100557.50;5138215;27;799;-42
2021/07/11 08:47:43;;;;;;;;;;;;;;;21.47;63.26;100549.91;5138805;27;713;-45
2021/07/11 08:50:09;;;;;;;;;;;;;;;21.27;63.72;100542.91;5122398;27;1031;-43
2021/07/11 08:52:35;;;;;;;;;;;;;;;21.42;63.38;100549.22;5117604;28;555;-48
2021/07/11 08:55:00;;;;;;;;;;;;;;;21.39;63.47;100547.06;5117894;28;920;-42
2021/07/11 08:57:26;;;;;;;;;;;;;;;21.45;63.24;100551.38;5118105;28;735;-43
2021/07/11 08:59:51;;;;;;;;;;;;;;;21.56;62.85;100551.97;5117518;28;814;-43
2021/07/11 09:02:17;;;;;;;;;;;;;;;21.42;63.57;100547.28;5117287;28;768;-43
2021/07/11 09:04:46;;;;;;;;;;;;;;;21.75;62.25;100536.00;5124751;27;1917;-42
2021/07/11 09:07:18;;;;;;;;;;;;;;;21.52;63.21;100552.59;5137905;27;822;-42
2021/07/11 09:09:44;;;;;;;;;;;;;;;21.38;63.77;100551.78;5138020;27;787;-43
2021/07/11 09:12:10;;;;;;;;;;;;;;;21.66;63.01;100546.19;5138049;27;806;-42
2021/07/11 09:14:36;;;;;;;;;;;;;;;21.70;62.71;100552.75;5136810;27;1097;-43
2021/07/11 09:17:02;;;;;;;;;;;;;;;21.70;62.96;100544.44;5137775;27;549;-42
2021/07/11 09:19:30;;;;;;;;;;;;;;;21.61;63.22;100543.53;5128024;27;996;-43
2021/07/11 09:21:57;;;;;;;;;;;;;;;21.61;63.01;100549.09;5117184;28;849;-44
2021/07/11 09:24:23;;;;;;;;;;;;;;;21.78;62.60;100542.84;5115531;27;2027;-43
2021/07/11 09:26:50;;;;;;;;;;;;;;;21.51;61.67;100550.91;5117021;28;819;-44
2021/07/11 09:29:28;;;;;;;;;;;;;;;20.90;61.57;100536.53;5116948;28;751;-41
2021/07/11 09:31:53;;;;;;;;;;;;;;;20.83;60.72;100531.41;5116975;28;811;-44
2021/07/11 09:34:19;;;;;;;;;;;;;;;20.79;59.37;100535.94;5103656;28;1121;-42
2021/07/11 09:36:45;;;;;;;;;;;;;;;20.60;59.41;100526.91;5116504;28;775;-43
2021/07/11 09:39:10;;;;;;;;;;;;;;;20.54;59.01;100525.34;5115456;28;1340;-43
2021/07/11 09:41:37;;;;;;;;;;;;;;;20.68;58.13;100527.03;5116687;28;756;-44
2021/07/11 09:44:04;;;;;;;;;;;;;;;20.56;57.83;100532.19;5116578;28;1989;-42
2021/07/11 09:46:35;;;;;;;;;;;;;;;20.59;57.38;100541.81;5116937;27;807;-44
2021/07/11 09:49:01;;;;;;;;;;;;;;;20.18;58.21;100532.38;5121786;27;1012;-47
2021/07/11 09:51:27;;;;;;;;;;;;;;;20.30;57.85;100540.16;5137231;27;846;-44
2021/07/11 09:53:53;;;;;;;;;;;;;;;20.29;59.16;100533.00;5137081;27;760;-45
2021/07/11 09:56:35;;;;;;;;;;;;;;;20.27;62.28;100535.25;5137499;27;732;-43
2021/07/11 09:59:01;;;;;;;;;;;;;;;20.87;62.57;100536.31;5136873;27;998;-47
2021/07/11 10:01:30;;;;;;;;;;;;;;;20.97;63.49;100525.03;5137345;27;885;-43
2021/07/11 10:03:58;;;;;;;;;;;;;;;21.04;64.36;100530.97;5132950;27;1980;-42
2021/07/11 10:06:24;;;;;;;;;;;;;;;21.01;65.11;100523.28;5136431;27;842;-43
2021/07/11 10:08:50;;;;;;;;;;;;;;;21.15;65.09;100531.56;5137234;27;782;-42
2021/07/11 10:11:15;;;;;;;;;;;;;;;21.17;65.45;100527.38;5137042;27;846;-43
2021/07/11 10:13:41;;;;;;;;;;;;;;;21.15;66.02;100526.88;5136882;27;747;-43
2021/07/11 10:16:09;;;;;;;;;;;;;;;21.34;65.66;100531.41;5137126;27;862;-43
2021/07/11 10:18:35;;;;;;;;;;;;;;;21.30;66.10;100527.66;5133061;27;991;-42
2021/07/11 10:21:00;;;;;;;;;;;;;;;21.42;66.00;100518.78;5115307;28;810;-43
2021/07/11 10:23:26;;;;;;;;;;;;;;;21.55;65.45;100514.38;5116555;28;1913;-45
2021/07/11 10:25:58;;;;;;;;;;;;;;;21.44;65.59;100511.00;5116360;28;878;-43
2021/07/11 10:28:28;;;;;;;;;;;;;;;21.49;66.15;100511.69;5116393;28;762;-44
2021/07/11 10:30:53;;;;;;;;;;;;;;;21.59;66.07;100507.91;5116422;28;815;-42
2021/07/11 10:33:20;;;;;;;;;;;;;;;21.59;66.03;100501.53;5115813;27;992;-42
2021/07/11 10:35:53;;;;;;;;;;;;;;;21.84;65.58;100503.66;5115899;27;945;-43
2021/07/11 10:38:25;;;;;;;;;;;;;;;21.67;65.72;100495.25;5116559;28;830;-42
2021/07/11 10:40:51;;;;;;;;;;;;;;;21.71;65.89;100487.94;5116261;28;755;-42
2021/07/11 10:43:16;;;;;;;;;;;;;;;21.88;65.87;100493.59;5114960;28;1971;-43
2021/07/11 10:45:45;;;;;;;;;;;;;;;21.79;65.33;100481.66;5116037;28;803;-42
2021/07/11 10:48:10;;;;;;;;;;;;;;;20.96;64.88;100476.44;5116211;28;822;-42
2021/07/11 10:50:40;;;;;;;;;;;;;;;20.97;63.87;100475.28;5116901;27;965;-42
2021/07/11 10:53:14;;;;;;;;;;;;;;;20.78;63.25;100479.00;5120497;28;783;-42
2021/07/11 10:55:42;;;;;;;;;;;;;;;20.78;61.09;100479.00;5120118;28;818;-44
2021/07/11 10:58:14;;;;;;;;;;;;;;;20.66;60.33;100479.53;5119488;28;799;-42
2021/07/11 11:00:40;;;;;;;;;;;;;;;20.70;59.04;100474.22;5120499;28;843;-42
2021/07/11 11:03:18;;;;;;;;;;;;;;;20.68;58.30;100479.25;5119879;28;1982;-42
2021/07/11 11:05:44;;;;;;;;;;;;;;;20.46;58.30;100477.97;5139782;27;961;-45
2021/07/11 11:08:10;;;;;;;;;;;;;;;20.43;59.04;100473.09;5140319;27;850;-45
2021/07/11 11:10:36;;;;;;;;;;;;;;;20.38;60.85;100489.75;5139834;27;755;-42
2021/07/11 11:13:08;;;;;;;;;;;;;;;20.71;62.16;100484.16;5140140;27;870;-43
2021/07/11 11:15:47;;;;;;;;;;;;;;;20.85;63.87;100484.13;5140305;27;798;-45
2021/07/11 11:18:19;;;;;;;;;;;;;;;20.89;65.16;100489.84;5140060;27;823;-41
2021/07/11 11:20:50;;;;;;;;;;;;;;;21.34;64.78;100473.34;5118982;27;897;-42
2021/07/11 11:23:15;;;;;;;;;;;;;;;21.41;65.11;100473.72;5119117;28;1980;-42
2021/07/11 11:25:44;;;;;;;;;;;;;;;21.26;66.37;100466.59;5119667;28;763;-41
2021/07/11 11:28:10;;;;;;;;;;;;;;;21.24;66.87;100473.56;5119095;28;743;-46
2021/07/11 11:30:36;;;;;;;;;;;;;;;21.48;66.63;100473.28;5119417;28;798;-42
2021/07/11 11:33:01;;;;;;;;;;;;;;;21.43;66.66;100484.47;5119504;28;795;-43
2021/07/11 11:35:28;;;;;;;;;;;;;;;21.59;66.79;100490.47;5135023;27;1004;-41
2021/07/11 11:37:54;;;;;;;;;;;;;;;21.57;66.40;100498.28;5139550;27;783;-42
2021/07/11 11:40:19;;;;;;;;;;;;;;;21.44;66.66;100509.03;5139863;27;815;-42
2021/07/11 11:42:55;;;;;;;;;;;;;;;21.57;67.00;100509.34;5139329;27;846;-43
2021/07/11 11:45:21;;;;;;;;;;;;;;;21.51;66.88;100500.31;5139721;27;846;-42
2021/07/11 11:47:59;;;;;;;;;;;;;;;21.56;66.71;100496.63;5139562;27;767;-42
2021/07/11 11:50:25;;;;;;;;;;;;;;;21.55;67.19;100526.25;5121004;27;976;-43
2021/07/11 11:52:50;;;;;;;;;;;;;;;21.59;66.75;100559.63;5119237;28;759;-45
2021/07/11 11:55:16;;;;;;;;;;;;;;;21.62;66.91;100592.22;5117764;28;1426;-42
2021/07/11 11:57:42;;;;;;;;;;;;;;;21.58;64.84;100600.31;5118341;28;767;-42
2021/07/11 12:00:13;;;;;;;;;;;;;;;21.56;63.52;100601.75;5119025;28;802;-41
2021/07/11 12:02:39;;;;;;;;;;;;;;;21.64;64.11;100592.72;5118499;28;763;-41
2021/07/11 12:05:11;;;;;;;;;;;;;;;21.46;64.13;100580.66;5128554;27;1917;-41
2021/07/11 12:07:37;;;;;;;;;;;;;;;21.38;64.76;100590.53;5139206;27;771;-42
2021/07/11 12:10:03;;;;;;;;;;;;;;;21.29;64.20;100606.19;5139414;27;781;-42
2021/07/11 12:12:28;;;;;;;;;;;;;;;21.05;63.22;100610.00;5138621;27;817;-42
2021/07/11 12:14:53;;;;;;;;;;;;;;;21.00;64.92;100588.03;5139288;27;854;-41
2021/07/11 12:17:19;;;;;;;;;;;;;;;21.20;64.01;100581.22;5138911;27;746;-42
2021/07/11 12:19:48;;;;;;;;;;;;;;;21.30;64.05;100577.41;5126113;27;1013;-42
2021/07/11 12:22:15;;;;;;;;;;;;;;;21.31;62.78;100574.34;5118446;28;786;-42
2021/07/11 12:24:40;;;;;;;;;;;;;;;21.30;62.41;100569.13;5119098;28;1922;-42
2021/07/11 12:27:06;;;;;;;;;;;;;;;21.20;62.99;100565.44;5117776;28;905;-42
2021/07/11 12:29:32;;;;;;;;;;;;;;;21.25;63.76;100558.16;5118496;28;759;-42
2021/07/11 12:31:58;;;;;;;;;;;;;;;21.75;64.37;100568.41;5118399;27;743;-42
2021/07/11 12:34:24;;;;;;;;;;;;;;;21.89;64.80;100555.31;5125197;27;985;-41
2021/07/11 12:37:16;;;;;;;;;;;;;;;22.16;64.52;100559.06;5138985;27;810;-42
2021/07/11 12:39:42;;;;;;;;;;;;;;;21.84;64.20;100559.03;5135519;27;1550;-42
2021/07/11 12:42:17;;;;;;;;;;;;;;;21.47;65.77;100560.97;5138348;27;814;-41
2021/07/11 12:44:43;;;;;;;;;;;;;;;21.52;64.04;100554.56;5138513;27;1913;-41
2021/07/11 12:47:15;;;;;;;;;;;;;;;21.11;62.03;100559.03;5138304;27;759;-41
2021/07/11 12:49:50;;;;;;;;;;;;;;;21.35;63.20;100553.22;5126174;27;1011;-41
2021/07/11 12:52:16;;;;;;;;;;;;;;;21.76;64.34;100559.78;5117469;28;859;-41
2021/07/11 12:54:41;;;;;;;;;;;;;;;22.04;64.08;100562.41;5117954;28;759;-42